Time;durP1;ratioP1;P1;durP2;ratioP2;P2;SDS_P1;SDS_P2;PMS_P1;PMS_P2;Temp;Humidity;BMP_temperature;BMP_pressure;BME280_temperature;BME280_humidity;BME280_pressure;Samples;Min_cycle;Max_cycle;Signal;HPM_P1;HPM_P2
2021/07/24 00:04:59;;;;;;;8.93;8.02;;;22.90;63.00;;;;;;10437511;28;20401;-58
2021/07/24 00:09:59;;;;;;;8.45;7.53;;;22.90;63.10;;;;;;10421006;28;20044;-58
2021/07/24 00:15:00;;;;;;;9.57;7.63;;;22.90;63.10;;;;;;10455122;28;20118;-59
2021/07/24 00:20:01;;;;;;;7.93;7.13;;;22.90;63.00;;;;;;10451738;28;20464;-59
2021/07/24 00:25:02;;;;;;;7.05;6.10;;;22.90;63.00;;;;;;10445050;28;20056;-58
2021/07/24 00:30:03;;;;;;;9.07;8.02;;;22.90;63.00;;;;;;10452223;28;20047;-58
2021/07/24 00:35:05;;;;;;;9.27;7.03;;;22.90;63.10;;;;;;10444838;28;20437;-58
2021/07/24 00:40:13;;;;;;;9.32;7.53;;;22.90;63.00;;;;;;10444703;28;20057;-58
2021/07/24 00:45:15;;;;;;;7.82;7.03;;;22.90;63.10;;;;;;10445115;28;20049;-58
2021/07/24 00:50:17;;;;;;;8.40;6.95;;;22.90;63.00;;;;;;10431645;28;20036;-58
2021/07/24 00:55:18;;;;;;;7.95;7.15;;;22.80;62.90;;;;;;10444219;28;20375;-58
2021/07/24 01:00:19;;;;;;;7.80;7.00;;;22.90;63.00;;;;;;10443544;28;20072;-58
2021/07/24 01:05:20;;;;;;;9.93;7.55;;;22.90;63.00;;;;;;10443495;28;20444;-58
2021/07/24 01:10:20;;;;;;;6.90;6.20;;;22.80;62.90;;;;;;10443534;28;20091;-58
2021/07/24 01:15:21;;;;;;;8.00;7.20;;;22.80;63.00;;;;;;10443078;28;20450;-58
2021/07/24 01:20:24;;;;;;;8.30;7.50;;;22.80;63.00;;;;;;10432131;28;20075;-58
2021/07/24 01:25:25;;;;;;;6.85;6.15;;;22.80;62.90;;;;;;10442917;28;20052;-58
2021/07/24 01:30:26;;;;;;;7.05;6.35;;;22.80;62.90;;;;;;10459496;28;20071;-59
2021/07/24 01:35:27;;;;;;;8.48;6.85;;;22.80;62.90;;;;;;10460235;28;20036;-58
2021/07/24 01:40:27;;;;;;;8.50;7.60;;;22.80;62.90;;;;;;10442139;28;20059;-58
2021/07/24 01:45:28;;;;;;;8.75;7.35;;;22.80;62.90;;;;;;10441815;28;20083;-58
2021/07/24 01:56:02;;;;;;;8.32;7.45;;;22.70;62.80;;;;;;10444345;28;20473;-58
2021/07/24 02:01:06;;;;;;;7.75;6.95;;;22.70;62.80;;;;;;10449173;28;20052;-60
2021/07/24 02:06:11;;;;;;;7.63;6.82;;;22.70;62.90;;;;;;10441384;28;20067;-58
2021/07/24 02:11:14;;;;;;;8.35;6.30;;;22.70;62.80;;;;;;10441152;28;20036;-58
2021/07/24 02:16:15;;;;;;;8.43;6.90;;;22.70;62.80;;;;;;10440919;28;20029;-58
2021/07/24 02:21:16;;;;;;;7.97;6.53;;;22.70;62.90;;;;;;10447112;28;20024;-58
2021/07/24 02:26:16;;;;;;;8.23;7.35;;;22.70;62.90;;;;;;10424346;28;20468;-58
2021/07/24 02:31:17;;;;;;;8.38;7.47;;;22.70;62.90;;;;;;10440339;28;20114;-58
2021/07/24 02:36:18;;;;;;;7.60;6.78;;;22.70;62.90;;;;;;10440080;28;20029;-57
2021/07/24 02:41:19;;;;;;;7.88;7.03;;;22.70;62.90;;;;;;10438510;28;20076;-58
2021/07/24 02:46:19;;;;;;;8.02;6.95;;;22.70;62.90;;;;;;10448912;28;20052;-58
2021/07/24 02:51:20;;;;;;;8.15;7.20;;;22.70;62.90;;;;;;10439698;28;20115;-58
2021/07/24 02:56:21;;;;;;;7.78;6.93;;;22.60;62.80;;;;;;10439505;28;20071;-58
2021/07/24 03:01:21;;;;;;;7.65;6.78;;;22.60;62.90;;;;;;10456785;28;20563;-58
2021/07/24 03:06:22;;;;;;;7.63;6.32;;;22.60;62.80;;;;;;10439283;28;20071;-57
2021/07/24 03:11:23;;;;;;;6.90;6.20;;;22.60;62.80;;;;;;10456431;28;20115;-58
2021/07/24 03:16:23;;;;;;;8.43;7.55;;;22.60;62.80;;;;;;10441021;28;20040;-58
2021/07/24 03:21:24;;;;;;;7.25;5.65;;;22.60;62.80;;;;;;10443292;28;20031;-59
2021/07/24 03:26:25;;;;;;;9.38;6.25;;;22.60;62.90;;;;;;10422361;28;20075;-58
2021/07/24 03:31:25;;;;;;;8.85;7.25;;;22.60;62.90;;;;;;10437778;28;20110;-59
2021/07/24 03:36:26;;;;;;;7.85;6.47;;;22.60;62.80;;;;;;10412006;28;20112;-59
2021/07/24 03:41:27;;;;;;;7.53;6.63;;;22.60;62.80;;;;;;10435467;28;20068;-58
2021/07/24 03:46:28;;;;;;;8.13;6.50;;;22.60;62.80;;;;;;10455340;28;20116;-58
2021/07/24 03:51:28;;;;;;;9.27;7.15;;;22.60;62.90;;;;;;10421742;28;20028;-58
2021/07/24 03:56:29;;;;;;;7.50;6.00;;;22.60;62.90;;;;;;10469025;28;20413;-57
2021/07/24 04:01:30;;;;;;;7.45;5.85;;;22.50;62.80;;;;;;10469115;28;20361;-58
2021/07/24 04:06:31;;;;;;;8.63;7.20;;;22.50;62.80;;;;;;10468575;28;20052;-58
2021/07/24 04:11:33;;;;;;;7.07;6.18;;;22.50;62.80;;;;;;10451118;28;20482;-58
2021/07/24 04:16:34;;;;;;;8.82;6.47;;;22.50;62.80;;;;;;10452947;28;20032;-58
2021/07/24 04:21:35;;;;;;;6.65;5.93;;;22.50;62.80;;;;;;10453394;28;20397;-58
2021/07/24 04:26:35;;;;;;;7.20;6.50;;;22.50;62.90;;;;;;10457465;28;20397;-58
2021/07/24 04:31:37;;;;;;;6.97;6.00;;;22.50;63.00;;;;;;10467669;28;20115;-59
2021/07/24 04:36:40;;;;;;;7.43;6.65;;;22.50;63.00;;;;;;10432702;28;20024;-58
2021/07/24 04:41:42;;;;;;;7.10;6.10;;;22.50;62.90;;;;;;10444619;28;20088;-58
2021/07/24 04:46:43;;;;;;;7.47;6.32;;;22.50;62.80;;;;;;10448728;28;20025;-59
2021/07/24 04:51:44;;;;;;;7.32;6.18;;;22.50;62.90;;;;;;10455172;28;20424;-58
2021/07/24 04:56:45;;;;;;;8.80;6.60;;;22.50;63.50;;;;;;10453007;28;20150;-58
2021/07/24 05:01:46;;;;;;;8.25;5.72;;;22.60;63.80;;;;;;10433430;28;20087;-57
2021/07/24 05:06:46;;;;;;;11.90;6.15;;;22.60;64.10;;;;;;10445679;28;20117;-58
2021/07/24 05:11:47;;;;;;;6.65;5.55;;;22.60;64.20;;;;;;10443253;28;20029;-58
2021/07/24 05:16:47;;;;;;;12.45;6.10;;;22.60;64.50;;;;;;10444885;28;20029;-57
2021/07/24 05:21:48;;;;;;;11.73;6.40;;;22.60;64.00;;;;;;10454758;28;20485;-58
2021/07/24 05:26:49;;;;;;;15.65;6.65;;;22.60;64.10;;;;;;10460560;28;20041;-59
2021/07/24 05:31:49;;;;;;;11.45;6.72;;;22.60;64.00;;;;;;10452508;28;20103;-58
2021/07/24 05:36:52;;;;;;;11.13;6.40;;;22.60;64.50;;;;;;10456163;28;20515;-59
2021/07/24 05:41:53;;;;;;;15.30;8.40;;;22.60;64.90;;;;;;10459707;28;20115;-60
2021/07/24 05:46:54;;;;;;;8.18;5.10;;;22.70;64.90;;;;;;10441566;28;20120;-58
2021/07/24 05:51:55;;;;;;;11.07;5.78;;;22.70;64.70;;;;;;10440747;28;20025;-59
2021/07/24 05:56:55;;;;;;;16.35;6.43;;;22.60;64.70;;;;;;10432662;28;20064;-57
2021/07/24 06:01:56;;;;;;;7.22;5.10;;;22.70;64.90;;;;;;10458949;28;20481;-59
2021/07/24 06:06:57;;;;;;;10.80;5.80;;;22.70;64.60;;;;;;10458750;28;20052;-59
2021/07/24 06:11:57;;;;;;;17.55;7.07;;;22.60;64.20;;;;;;10424255;28;20065;-59
2021/07/24 06:16:58;;;;;;;8.70;6.35;;;22.60;64.50;;;;;;10440262;28;20116;-58
2021/07/24 06:21:59;;;;;;;10.50;7.15;;;22.60;64.40;;;;;;10443233;28;20483;-59
2021/07/24 06:27:00;;;;;;;10.27;6.38;;;22.60;64.50;;;;;;10439598;28;20032;-59
2021/07/24 06:32:01;;;;;;;9.68;7.32;;;22.60;64.60;;;;;;10458067;28;20531;-58
2021/07/24 06:37:02;;;;;;;10.82;6.07;;;22.60;64.50;;;;;;10457685;28;20108;-58
2021/07/24 06:42:03;;;;;;;10.95;6.15;;;22.60;64.60;;;;;;10439218;28;20098;-58
2021/07/24 06:47:03;;;;;;;6.95;5.32;;;22.60;64.60;;;;;;10456131;28;20064;-53
2021/07/24 06:52:04;;;;;;;9.05;6.07;;;22.50;64.40;;;;;;10438694;28;20437;-59
2021/07/24 06:57:05;;;;;;;8.63;5.25;;;22.60;64.60;;;;;;10456342;28;20083;-58
2021/07/24 07:02:06;;;;;;;9.13;5.88;;;22.60;64.50;;;;;;10438843;28;20068;-58
2021/07/24 07:07:07;;;;;;;8.30;6.38;;;22.60;64.60;;;;;;10456530;28;20099;-59
2021/07/24 07:12:08;;;;;;;7.15;5.25;;;22.60;65.10;;;;;;10454250;28;20037;-58
2021/07/24 07:17:09;;;;;;;12.82;6.00;;;22.60;65.00;;;;;;10437800;28;20029;-61
2021/07/24 07:22:09;;;;;;;10.25;5.93;;;22.60;64.70;;;;;;10455444;28;20025;-61
2021/07/24 07:27:10;;;;;;;9.20;5.97;;;22.60;64.80;;;;;;10436849;28;20435;-61
2021/07/24 07:32:11;;;;;;;7.30;4.90;;;22.60;64.90;;;;;;10454872;28;20108;-61
2021/07/24 07:37:12;;;;;;;9.32;5.90;;;22.60;64.80;;;;;;10410430;28;20024;-61
2021/07/24 07:42:12;;;;;;;10.00;5.60;;;22.60;64.80;;;;;;10377360;28;20497;-60
2021/07/24 07:47:13;;;;;;;9.50;6.43;;;22.60;65.20;;;;;;10357818;28;20120;-63
2021/07/24 07:52:14;;;;;;;8.60;5.85;;;22.60;64.50;;;;;;10361470;28;20165;-64
2021/07/24 07:57:14;;;;;;;9.13;6.53;;;22.60;65.20;;;;;;10349275;28;20105;-62
2021/07/24 08:02:15;;;;;;;12.45;5.82;;;22.60;65.60;;;;;;10345228;28;20062;-62
2021/07/24 08:07:19;;;;;;;14.57;6.38;;;22.60;65.90;;;;;;10364208;28;20542;-60
2021/07/24 08:12:19;;;;;;;13.52;6.57;;;22.70;66.20;;;;;;10360199;28;20049;-55
2021/07/24 08:17:21;;;;;;;18.58;6.03;;;22.70;66.10;;;;;;10362977;28;20057;-60
2021/07/24 08:22:21;;;;;;;14.93;6.22;;;22.70;65.60;;;;;;10364343;28;20041;-61
2021/07/24 08:27:22;;;;;;;20.60;6.47;;;22.70;65.60;;;;;;10368956;28;20069;-61
2021/07/24 08:32:23;;;;;;;17.10;6.20;;;22.80;65.90;;;;;;10362678;28;20044;-59
2021/07/24 08:37:24;;;;;;;13.75;7.07;;;22.80;66.00;;;;;;10353218;28;20037;-61
2021/07/24 08:42:31;;;;;;;15.38;5.88;;;22.80;65.90;;;;;;10402116;28;20041;-61
2021/07/24 08:47:32;;;;;;;18.02;5.53;;;22.80;66.00;;;;;;10416959;28;20033;-62
2021/07/24 08:52:34;;;;;;;10.13;6.07;;;22.80;66.10;;;;;;10371380;28;20023;-61
2021/07/24 08:57:42;;;;;;;11.07;6.72;;;22.80;66.10;;;;;;10347094;28;20475;-60
2021/07/24 09:02:46;;;;;;;10.48;5.57;;;22.80;65.70;;;;;;10344379;28;20041;-60
2021/07/24 09:07:49;;;;;;;13.02;6.68;;;22.80;65.70;;;;;;10379088;28;20033;-59
2021/07/24 09:12:55;;;;;;;12.95;6.28;;;22.80;65.70;;;;;;10359618;28;20390;-60
2021/07/24 09:17:56;;;;;;;8.75;6.10;;;22.70;65.70;;;;;;10373650;28;20022;-60
2021/07/24 09:22:57;;;;;;;10.32;6.50;;;22.80;65.70;;;;;;10379582;28;20076;-60
2021/07/24 09:28:10;;;;;;;6.80;5.70;;;22.80;65.70;;;;;;10373913;28;20100;-60
2021/07/24 09:33:20;;;;;;;9.32;5.20;;;22.80;65.70;;;;;;10349222;28;20073;-59
2021/07/24 09:38:28;;;;;;;7.63;5.43;;;22.80;65.70;;;;;;10357534;28;20068;-59
2021/07/24 09:43:32;;;;;;;6.45;4.78;;;22.70;65.70;;;;;;10450418;28;20132;-59
2021/07/24 09:48:33;;;;;;;7.05;5.57;;;22.80;65.70;;;;;;10459503;28;20377;-60
2021/07/24 09:53:42;;;;;;;7.57;5.07;;;22.80;65.70;;;;;;10446214;28;20036;-60
2021/07/24 09:58:46;;;;;;;11.23;6.22;;;22.80;65.70;;;;;;10442428;28;20025;-59
2021/07/24 10:03:51;;;;;;;7.57;5.55;;;22.80;65.70;;;;;;10459004;28;20025;-59
2021/07/24 10:08:53;;;;;;;6.40;5.10;;;22.80;65.70;;;;;;10457245;28;20604;-59
2021/07/24 10:13:54;;;;;;;8.57;6.20;;;22.80;65.70;;;;;;10442988;28;20499;-60
2021/07/24 10:18:56;;;;;;;8.88;6.43;;;22.80;65.70;;;;;;10440204;28;20030;-60
2021/07/24 10:23:57;;;;;;;10.13;6.18;;;22.70;65.70;;;;;;10446570;28;20037;-60
2021/07/24 10:29:07;;;;;;;10.70;5.93;;;22.80;65.70;;;;;;10440377;28;20481;-60
2021/07/24 10:34:09;;;;;;;8.65;5.65;;;22.80;66.90;;;;;;10439405;28;20036;-60
2021/07/24 10:39:22;;;;;;;7.78;5.75;;;22.80;66.00;;;;;;10438817;28;20072;-62
2021/07/24 10:44:42;;;;;;;8.70;6.05;;;22.80;65.90;;;;;;10423368;28;20055;-62
2021/07/24 10:49:46;;;;;;;7.93;6.18;;;22.80;67.10;;;;;;10440060;28;20029;-61
2021/07/24 10:54:52;;;;;;;9.32;6.65;;;22.80;66.00;;;;;;10456779;28;20037;-62
2021/07/24 11:00:32;;;;;;;9.85;6.60;;;22.80;66.90;;;;;;10456217;28;20041;-61
2021/07/24 11:05:38;;;;;;;;;;;22.80;66.30;;;;;;10441600;28;20041;-61
2021/07/24 11:11:08;;;;;;;8.05;5.85;;;22.70;66.00;;;;;;10421070;28;20285;-62
2021/07/24 11:16:09;;;;;;;11.35;7.18;;;22.70;67.10;;;;;;10435796;28;20025;-62
2021/07/24 11:21:10;;;;;;;10.13;7.10;;;22.80;67.50;;;;;;10427138;28;20090;-62
2021/07/24 11:26:16;;;;;;;9.30;7.22;;;22.80;67.90;;;;;;10437798;28;20091;-61
2021/07/24 11:31:19;;;;;;;16.55;8.30;;;22.70;67.60;;;;;;10437424;28;20043;-61
2021/07/24 11:36:19;;;;;;;24.20;6.60;;;22.80;67.70;;;;;;10455761;28;20049;-62
2021/07/24 11:41:31;;;;;;;14.60;8.30;;;22.80;67.10;;;;;;10437219;28;20049;-61
2021/07/24 11:46:32;;;;;;;14.98;8.35;;;22.80;67.90;;;;;;10421055;28;20039;-61
2021/07/24 11:51:33;;;;;;;21.60;8.95;;;22.80;69.10;;;;;;10437371;28;20033;-62
2021/07/24 11:56:33;;;;;;;16.25;7.13;;;22.90;68.90;;;;;;10421241;28;20032;-62
2021/07/24 12:01:40;;;;;;;16.85;8.13;;;22.90;68.70;;;;;;10437360;28;20573;-63
2021/07/24 12:06:52;;;;;;;15.40;8.10;;;22.90;68.90;;;;;;10454395;28;20029;-61
2021/07/24 12:11:56;;;;;;;14.77;8.18;;;23.00;69.90;;;;;;10435727;28;20579;-62
2021/07/24 12:17:25;;;;;;;15.23;8.02;;;23.00;69.50;;;;;;10462410;28;20060;-62
2021/07/24 12:22:27;;;;;;;15.00;8.88;;;23.10;69.50;;;;;;10467255;28;20052;-61
2021/07/24 12:27:28;;;;;;;14.88;10.40;;;23.10;69.50;;;;;;10425215;28;20120;-62
2021/07/24 12:32:40;;;;;;;16.20;10.32;;;23.20;70.50;;;;;;10444163;28;20432;-61
2021/07/24 12:37:41;;;;;;;15.63;11.25;;;23.30;70.00;;;;;;10432919;28;20091;-61
2021/07/24 12:42:43;;;;;;;20.27;13.55;;;23.30;70.10;;;;;;10442763;28;20437;-61
2021/07/24 12:47:45;;;;;;;17.85;13.45;;;23.30;70.40;;;;;;10460393;28;20383;-60
2021/07/24 12:52:52;;;;;;;19.27;14.18;;;23.30;70.30;;;;;;10445861;28;20493;-63
2021/07/24 12:57:53;;;;;;;22.83;16.73;;;23.30;70.30;;;;;;10444397;28;20029;-61
2021/07/24 13:02:53;;;;;;;22.67;18.38;;;23.30;70.30;;;;;;10444623;28;20043;-61
2021/07/24 13:07:58;;;;;;;21.63;18.25;;;23.30;70.20;;;;;;10442227;28;20032;-60
2021/07/24 13:12:59;;;;;;;25.15;21.67;;;23.30;70.30;;;;;;10451286;28;20033;-62
2021/07/24 13:18:00;;;;;;;22.63;18.98;;;23.30;70.20;;;;;;10458214;28;20504;-58
2021/07/24 13:23:00;;;;;;;20.15;17.10;;;23.40;69.90;;;;;;10460827;28;20056;-58
2021/07/24 13:28:19;;;;;;;21.10;15.20;;;23.30;69.60;;;;;;10459203;28;20033;-59
2021/07/24 13:33:20;;;;;;;21.25;15.23;;;23.30;69.80;;;;;;10433511;28;20029;-61
2021/07/24 13:38:20;;;;;;;20.98;15.00;;;23.30;69.50;;;;;;10451495;28;20135;-58
2021/07/24 13:43:21;;;;;;;17.58;15.32;;;23.30;69.30;;;;;;10452059;28;20481;-61
2021/07/24 13:48:22;;;;;;;20.90;14.35;;;23.30;69.10;;;;;;10434164;28;20077;-60
2021/07/24 13:53:22;;;;;;;21.23;13.45;;;23.30;69.10;;;;;;10451371;28;20079;-59
2021/07/24 13:58:23;;;;;;;15.45;13.57;;;23.30;69.10;;;;;;10433922;28;20124;-60
2021/07/24 14:03:24;;;;;;;14.55;12.27;;;23.20;69.00;;;;;;10434437;28;20435;-60
2021/07/24 14:08:25;;;;;;;16.77;12.25;;;23.20;68.90;;;;;;10457731;28;20029;-58
2021/07/24 14:13:26;;;;;;;16.25;12.27;;;23.20;68.90;;;;;;10436330;28;20423;-58
2021/07/24 14:18:27;;;;;;;14.88;12.38;;;23.20;68.90;;;;;;10457538;28;20029;-58
2021/07/24 14:23:29;;;;;;;16.60;12.52;;;23.20;68.90;;;;;;10459268;28;20025;-58
2021/07/24 14:28:33;;;;;;;15.75;12.13;;;23.20;68.90;;;;;;10456264;28;20741;-58
2021/07/24 14:33:36;;;;;;;14.88;11.60;;;23.20;68.90;;;;;;10426814;28;20098;-58
2021/07/24 14:38:37;;;;;;;14.68;11.40;;;23.20;68.90;;;;;;10439564;28;20037;-58
2021/07/24 14:43:39;;;;;;;12.30;11.10;;;23.20;68.90;;;;;;10440357;28;20055;-58
2021/07/24 14:48:40;;;;;;;14.00;11.38;;;23.10;68.80;;;;;;10426369;28;20039;-58
2021/07/24 14:53:41;;;;;;;15.10;12.13;;;23.10;69.10;;;;;;10421520;28;20060;-60
2021/07/24 14:58:43;;;;;;;14.13;11.30;;;23.10;68.80;;;;;;10411373;28;20067;-60
2021/07/24 15:03:44;;;;;;;16.83;11.93;;;23.10;68.80;;;;;;10455172;28;20079;-61
2021/07/24 15:08:45;;;;;;;12.85;10.52;;;23.10;68.90;;;;;;10454928;28;20420;-59
2021/07/24 15:13:48;;;;;;;15.43;11.63;;;23.10;68.80;;;;;;10436287;28;20029;-60
2021/07/24 15:18:49;;;;;;;16.95;12.88;;;23.10;68.80;;;;;;10455595;28;20116;-59
2021/07/24 15:23:50;;;;;;;16.55;12.40;;;23.00;68.80;;;;;;10443755;28;20044;-60
2021/07/24 15:28:50;;;;;;;16.92;12.68;;;23.00;68.80;;;;;;10421902;28;20119;-60
2021/07/24 15:33:51;;;;;;;18.65;13.73;;;23.00;69.00;;;;;;10437477;28;20566;-61
2021/07/24 15:38:52;;;;;;;17.58;12.52;;;23.10;69.90;;;;;;10423930;28;20147;-61
2021/07/24 15:43:53;;;;;;;18.83;14.63;;;23.10;69.80;;;;;;10421026;28;20081;-61
2021/07/24 15:48:53;;;;;;;31.73;22.20;;;23.10;70.00;;;;;;10436942;28;20044;-63
2021/07/24 15:53:54;;;;;;;21.30;16.95;;;23.10;71.30;;;;;;10437543;28;20460;-61
2021/07/24 15:58:55;;;;;;;21.95;17.88;;;23.10;71.10;;;;;;10454974;28;20037;-61
2021/07/24 16:03:55;;;;;;;29.00;24.80;;;23.10;71.40;;;;;;10453725;28;20071;-61
2021/07/24 16:08:56;;;;;;;32.97;24.30;;;23.20;72.00;;;;;;10454654;28;20166;-62
2021/07/24 16:13:57;;;;;;;28.63;21.02;;;23.20;73.70;;;;;;10442568;28;20025;-60
2021/07/24 16:18:57;;;;;;;25.13;19.55;;;23.10;71.50;;;;;;10440126;28;20114;-61
2021/07/24 16:23:58;;;;;;;23.33;19.73;;;23.10;71.00;;;;;;10460534;28;20516;-61
2021/07/24 16:28:59;;;;;;;28.75;21.30;;;23.10;70.90;;;;;;10451838;28;20045;-61
2021/07/24 16:34:00;;;;;;;25.55;20.50;;;23.10;70.80;;;;;;10453819;28;20447;-59
2021/07/24 16:39:00;;;;;;;25.98;20.73;;;23.10;70.50;;;;;;10453572;28;20103;-60
2021/07/24 16:44:03;;;;;;;25.08;20.48;;;23.00;70.40;;;;;;10429147;28;20037;-60
2021/07/24 16:49:03;;;;;;;26.27;19.88;;;23.10;70.30;;;;;;10424418;28;20043;-60
2021/07/24 16:54:04;;;;;;;30.92;24.92;;;23.10;70.20;;;;;;10435670;28;20033;-61
2021/07/24 16:59:05;;;;;;;26.67;23.27;;;23.00;70.10;;;;;;10453973;28;20063;-60
2021/07/24 17:04:05;;;;;;;26.52;23.58;;;23.00;70.10;;;;;;10460394;28;20114;-60
2021/07/24 17:09:06;;;;;;;25.55;21.98;;;23.00;70.00;;;;;;10461048;28;20037;-59
2021/07/24 17:14:10;;;;;;;27.15;21.80;;;23.00;69.80;;;;;;10460549;28;20052;-59
2021/07/24 17:19:11;;;;;;;25.73;22.15;;;23.00;69.90;;;;;;10459380;28;20083;-61
2021/07/24 17:24:12;;;;;;;24.65;21.23;;;23.00;69.80;;;;;;10447464;28;20106;-63
2021/07/24 17:29:14;;;;;;;24.35;21.67;;;23.00;69.90;;;;;;10453324;28;20362;-67
2021/07/24 17:34:16;;;;;;;25.10;20.65;;;22.90;69.90;;;;;;10441935;28;20032;-62
2021/07/24 17:39:17;;;;;;;26.77;22.30;;;23.00;70.20;;;;;;10457058;28;20040;-61
2021/07/24 17:44:17;;;;;;;30.33;23.70;;;23.00;71.00;;;;;;10441376;28;20421;-62
2021/07/24 17:49:18;;;;;;;30.73;23.15;;;23.00;70.80;;;;;;10441606;28;20048;-62
2021/07/24 17:54:19;;;;;;;30.98;22.17;;;23.00;70.70;;;;;;10441370;28;20064;-61
2021/07/24 17:59:19;;;;;;;23.75;20.10;;;23.00;70.90;;;;;;10459199;28;20060;-62
2021/07/24 18:04:20;;;;;;;23.20;20.48;;;23.00;70.50;;;;;;10440820;28;20485;-61
2021/07/24 18:09:21;;;;;;;25.00;18.90;;;23.10;70.10;;;;;;10440958;28;20116;-62
2021/07/24 18:14:21;;;;;;;20.70;17.95;;;23.00;70.10;;;;;;10456984;28;20059;-62
2021/07/24 18:19:22;;;;;;;18.65;15.80;;;23.00;70.00;;;;;;10448325;28;20025;-62
2021/07/24 18:24:23;;;;;;;20.95;17.00;;;23.00;69.90;;;;;;10462714;28;20064;-62
2021/07/24 18:29:24;;;;;;;21.67;18.13;;;23.00;70.70;;;;;;10456940;28;20057;-61
2021/07/24 18:34:25;;;;;;;21.38;17.15;;;23.00;70.70;;;;;;10430697;28;20029;-61
2021/07/24 18:39:26;;;;;;;19.98;16.35;;;23.00;70.70;;;;;;10441494;28;20053;-61
2021/07/24 18:44:30;;;;;;;25.15;16.15;;;23.00;70.80;;;;;;10454117;28;20037;-61
2021/07/24 18:49:31;;;;;;;29.50;16.50;;;23.10;70.90;;;;;;10457188;28;20033;-64
2021/07/24 18:54:31;;;;;;;45.10;17.50;;;23.00;70.90;;;;;;10456738;28;20100;-63
2021/07/24 18:59:32;;;;;;;32.08;14.98;;;23.10;71.30;;;;;;10456546;28;20028;-64
2021/07/24 19:04:33;;;;;;;20.33;16.85;;;23.10;71.30;;;;;;10454847;28;20104;-62
2021/07/24 19:09:33;;;;;;;18.90;16.40;;;23.00;71.90;;;;;;10455560;28;20029;-62
2021/07/24 19:14:34;;;;;;;18.02;16.05;;;23.10;71.50;;;;;;10437656;28;20059;-62
2021/07/24 19:19:36;;;;;;;19.27;16.95;;;23.10;71.50;;;;;;10458972;28;20059;-63
2021/07/24 19:24:37;;;;;;;17.77;15.93;;;23.10;71.60;;;;;;10458498;28;20033;-61
2021/07/24 19:29:37;;;;;;;19.88;15.80;;;23.10;72.30;;;;;;10438019;28;20369;-65
2021/07/24 19:34:38;;;;;;;18.45;16.25;;;23.10;71.90;;;;;;10455429;28;20029;-63
2021/07/24 19:39:39;;;;;;;17.10;15.30;;;23.20;72.10;;;;;;10437375;28;20033;-65
2021/07/24 19:44:40;;;;;;;19.95;16.25;;;23.20;72.10;;;;;;10435928;28;20052;-62
2021/07/24 19:49:41;;;;;;;18.67;16.73;;;23.20;71.80;;;;;;10455349;28;20056;-64
2021/07/24 19:54:41;;;;;;;16.25;14.55;;;23.20;71.90;;;;;;10454098;28;20033;-62
2021/07/24 19:59:42;;;;;;;18.00;15.60;;;23.20;71.80;;;;;;10455042;28;20485;-62
2021/07/24 20:04:43;;;;;;;17.63;15.82;;;23.10;71.60;;;;;;10437614;28;20033;-62
2021/07/24 20:09:44;;;;;;;17.23;15.43;;;23.10;71.50;;;;;;10451118;28;20131;-62
2021/07/24 20:14:45;;;;;;;17.13;15.25;;;23.10;71.50;;;;;;10433428;28;20028;-61
2021/07/24 20:19:45;;;;;;;17.27;14.82;;;23.10;71.40;;;;;;10455020;28;20035;-62
2021/07/24 20:24:46;;;;;;;18.60;16.70;;;23.10;71.40;;;;;;10433862;28;20155;-61
2021/07/24 20:29:47;;;;;;;18.40;15.95;;;23.10;71.30;;;;;;10449950;28;20454;-62
2021/07/24 20:34:47;;;;;;;17.77;15.93;;;23.00;71.20;;;;;;10453063;28;20063;-62
2021/07/24 20:39:48;;;;;;;16.75;15.05;;;23.00;71.10;;;;;;10461815;28;20123;-61
2021/07/24 20:44:49;;;;;;;17.13;15.43;;;23.00;71.00;;;;;;10440585;28;20753;-62
2021/07/24 20:49:51;;;;;;;17.17;15.38;;;23.00;71.00;;;;;;10452823;28;20070;-62
2021/07/24 20:54:52;;;;;;;16.88;14.82;;;23.00;71.00;;;;;;10454664;28;20025;-62
2021/07/24 20:59:57;;;;;;;16.58;14.88;;;23.00;71.00;;;;;;10456906;28;20103;-62
2021/07/24 21:04:57;;;;;;;16.23;14.63;;;23.00;70.80;;;;;;10460250;28;20037;-62
2021/07/24 21:09:59;;;;;;;17.13;14.93;;;23.00;70.80;;;;;;10451854;28;20459;-62
2021/07/24 21:14:59;;;;;;;15.30;13.70;;;23.00;70.70;;;;;;10458884;28;20029;-61
2021/07/24 21:20:00;;;;;;;17.45;15.70;;;22.90;70.60;;;;;;10463478;28;20079;-62
2021/07/24 21:25:01;;;;;;;17.77;15.80;;;22.90;70.60;;;;;;10442574;28;20420;-62
2021/07/24 21:30:02;;;;;;;16.77;15.07;;;22.90;70.50;;;;;;10459388;28;20584;-62
2021/07/24 21:35:03;;;;;;;16.85;15.05;;;22.90;70.50;;;;;;10460386;28;20115;-62
2021/07/24 21:40:05;;;;;;;15.15;13.65;;;22.90;70.40;;;;;;10460511;28;20052;-62
2021/07/24 21:45:06;;;;;;;16.33;13.80;;;22.90;70.50;;;;;;10459521;28;20393;-62
2021/07/24 21:50:08;;;;;;;15.23;13.73;;;22.90;70.50;;;;;;10447059;28;20110;-62
2021/07/24 21:55:10;;;;;;;19.48;15.93;;;22.90;70.30;;;;;;10459811;28;20385;-61
2021/07/24 22:00:19;;;;;;;15.32;13.82;;;22.90;70.40;;;;;;10453093;28;20032;-62
2021/07/24 22:05:20;;;;;;;16.15;14.55;;;22.90;70.50;;;;;;10457523;28;20090;-62
2021/07/24 22:10:21;;;;;;;16.95;15.23;;;22.90;70.50;;;;;;10458332;28;20029;-62
2021/07/24 22:15:22;;;;;;;16.10;14.50;;;22.90;70.60;;;;;;10459023;28;20033;-62
2021/07/24 22:20:23;;;;;;;15.65;13.98;;;22.90;70.50;;;;;;10465150;28;20516;-62
2021/07/24 22:25:24;;;;;;;17.05;15.10;;;22.90;70.60;;;;;;10450404;28;20177;-62
2021/07/24 22:30:25;;;;;;;16.45;14.60;;;22.90;70.60;;;;;;10449019;28;20040;-62
2021/07/24 22:35:27;;;;;;;15.02;13.60;;;22.90;70.70;;;;;;10422372;28;20465;-62
2021/07/24 22:40:27;;;;;;;15.50;14.00;;;22.90;70.50;;;;;;10457414;28;20038;-61
2021/07/24 22:45:29;;;;;;;16.88;14.68;;;22.80;70.50;;;;;;10457358;28;20581;-61
2021/07/24 22:50:30;;;;;;;15.70;14.23;;;22.80;70.40;;;;;;10457358;28;20071;-62
2021/07/24 22:55:31;;;;;;;16.40;14.70;;;22.80;70.50;;;;;;10423084;28;20508;-62
2021/07/24 23:00:32;;;;;;;15.60;14.13;;;22.80;70.50;;;;;;10456176;28;20025;-62
2021/07/24 23:05:35;;;;;;;17.38;15.68;;;22.80;70.60;;;;;;10456419;28;20052;-61
2021/07/24 23:10:37;;;;;;;14.80;13.35;;;22.80;70.50;;;;;;10456711;28;20473;-61
2021/07/24 23:15:39;;;;;;;16.23;14.68;;;22.80;70.50;;;;;;10456465;28;20029;-61
2021/07/24 23:20:39;;;;;;;16.23;14.57;;;22.80;70.60;;;;;;10445107;28;20032;-62
2021/07/24 23:25:40;;;;;;;15.25;13.77;;;22.80;70.60;;;;;;10456473;28;20454;-61
2021/07/24 23:30:41;;;;;;;16.80;15.18;;;22.80;70.70;;;;;;10456005;28;20433;-61
2021/07/24 23:35:41;;;;;;;15.88;14.27;;;22.70;70.50;;;;;;10438269;28;20497;-62
2021/07/24 23:40:42;;;;;;;16.52;14.93;;;22.80;70.60;;;;;;10438006;28;20060;-62
2021/07/24 23:45:43;;;;;;;17.65;15.85;;;22.80;70.50;;;;;;10455535;28;20103;-62
2021/07/24 23:50:44;;;;;;;16.55;14.88;;;22.80;70.60;;;;;;10437605;28;20120;-61
2021/07/24 23:55:44;;;;;;;16.17;14.60;;;22.70;70.50;;;;;;10455274;28;20548;-61
